Arklow Raider — EIXS — position and weather

sailwx.info

Track history (hours):
 
Tides and Currents Weather Stations Pressure Air Temp Water Temp Dewpoint Dewpoint Depression Visibility Wind Speed Wind Dir Waves Ship Positions

Arklow Raider

Last reported at 2016-Feb-11 00:14 UTC. Time now 2016-Feb-13 00:30 UTC.
Position N 53°44' W 006°16'.

Length 90 m; draft 3.8 m.

Type: Ship. MMSI: 250001268.

Date/timePositionNaut miles runAvg speedWind from/ knotsBaromVisibWave heightAir tempDewpointWater temp
2016-Feb-11 00:14N 53°44' W 006°16'6 8.5
2016-Feb-10 23:33N 53°47' W 006°08'1212.2
2016-Feb-10 22:33N 53°56' W 005°56'1212.1
2016-Feb-10 21:33N 54°06' W 005°43'1312.2
2016-Feb-10 20:30N 54°17' W 005°30'1212.3
2016-Feb-10 19:33N 54°27' W 005°22'1413.5
2016-Feb-10 18:33N 54°40' W 005°28'1212.2
2016-Feb-10 17:32N 54°41' W 005°49'4 0.1
2016-Feb-09 04:28N 54°37' W 005°54'0 0.0
2016-Feb-09 03:04N 54°37' W 005°54'0 0.0
2016-Feb-09 02:16N 54°37' W 005°54'0 0.0
2016-Feb-09 01:28N 54°37' W 005°54'0 0.0
2016-Feb-08 22:10N 54°37' W 005°54'0 0.0
2016-Feb-08 21:10N 54°37' W 005°54'0 0.0
2016-Feb-08 20:16N 54°37' W 005°54'0 0.0
2016-Feb-08 19:13N 54°37' W 005°54'0 0.0
2016-Feb-08 14:28N 54°37' W 005°54'5 2.8
2016-Feb-08 12:32N 54°41' W 005°48'4 0.4
2016-Feb-08 02:17N 54°41' W 005°41'0 0.3
2016-Feb-08 01:30N 54°41' W 005°41'8 8.3
2016-Feb-08 00:33N 54°41' W 005°27'1212.5
2016-Feb-07 23:34N 54°29' W 005°22'1110.9
2016-Feb-07 22:33N 54°18' W 005°21'1010.3
2016-Feb-07 21:33N 54°07' W 005°23'249 5.1
2016-Feb-05 21:08N 50°30' W 002°05'13 8.3
2016-Feb-05 19:33N 50°36' W 001°46'9 8.6
2016-Feb-05 18:33N 50°41' W 001°35'9 8.7
2016-Feb-05 17:33N 50°45' W 001°24'7 6.6
2016-Feb-05 16:33N 50°51' W 001°21'4 0.2
2016-Feb-04 19:29N 50°54' W 001°26'0 0.0
2016-Feb-03 03:32N 50°54' W 001°26'0 0.0
2016-Feb-03 02:08N 50°54' W 001°26'0 0.0
2016-Feb-02 22:32N 50°54' W 001°26'1 1.0
2016-Feb-02 21:32N 50°54' W 001°25'8 8.2
2016-Feb-02 20:33N 50°46' W 001°20'7 6.7
2016-Feb-02 19:33N 50°43' W 001°29'7 6.6
2016-Feb-02 18:33N 50°39' W 001°38'1211.3
2016-Feb-02 17:32N 50°33' W 001°53'19510.8
2016-Feb-01 23:33N 48°21' W 005°34'10 9.8
2016-Feb-01 22:33N 48°13' W 005°26'10 9.7
2016-Feb-01 21:33N 48°05' W 005°19'9 8.8
2016-Feb-01 20:33N 47°58' W 005°09'48 9.1
2016-Feb-01 15:18N 47°38' W 004°05'810.5
2016-Feb-01 14:33N 47°38' W 003°53'1110.7
2016-Feb-01 13:33N 47°39' W 003°38'9 9.5
2016-Feb-01 12:33N 47°41' W 003°24'3 3.2
2016-Feb-01 11:31N 47°44' W 003°21'0 0.0
2016-Feb-01 10:31N 47°44' W 003°21'0 0.0
2016-Feb-01 09:31N 47°44' W 003°21'0 0.0
2016-Feb-01 08:31N 47°44' W 003°21'0 0.0
2016-Feb-01 07:31N 47°44' W 003°21'0 0.0
2016-Feb-01 06:31N 47°44' W 003°21'0 0.0
2016-Feb-01 05:31N 47°44' W 003°21'0 0.0
2016-Feb-01 04:31N 47°44' W 003°21'0 0.0
2016-Feb-01 03:31N 47°44' W 003°21'0 0.0
2016-Feb-01 02:31N 47°44' W 003°21'0 0.0
2016-Feb-01 01:31N 47°44' W 003°21'0 0.0
2016-Feb-01 00:31N 47°44' W 003°21'  
Track history (hours):
 
Tides and Currents Weather Stations Pressure Air Temp Water Temp Dewpoint Dewpoint Depression Visibility Wind Speed Wind Dir Waves Ship Positions

Arklow Raider

Last reported at 2016-Feb-11 00:14 UTC. Time now 2016-Feb-13 00:30 UTC.
Position N 53°44' W 006°16'.

Length 90 m; draft 3.8 m.

Type: Ship. MMSI: 250001268.

Date/timePositionNaut miles runAvg speedWind from/ knotsBaromVisibWave heightAir tempDewpointWater temp
2016-Feb-11 00:14N 53°44' W 006°16'6 8.5
2016-Feb-10 23:33N 53°47' W 006°08'1212.2
2016-Feb-10 22:33N 53°56' W 005°56'1212.1
2016-Feb-10 21:33N 54°06' W 005°43'1312.2
2016-Feb-10 20:30N 54°17' W 005°30'1212.3
2016-Feb-10 19:33N 54°27' W 005°22'1413.5
2016-Feb-10 18:33N 54°40' W 005°28'1212.2
2016-Feb-10 17:32N 54°41' W 005°49'4 0.1
2016-Feb-09 04:28N 54°37' W 005°54'0 0.0
2016-Feb-09 03:04N 54°37' W 005°54'0 0.0
2016-Feb-09 02:16N 54°37' W 005°54'0 0.0
2016-Feb-09 01:28N 54°37' W 005°54'0 0.0
2016-Feb-08 22:10N 54°37' W 005°54'0 0.0
2016-Feb-08 21:10N 54°37' W 005°54'0 0.0
2016-Feb-08 20:16N 54°37' W 005°54'0 0.0
2016-Feb-08 19:13N 54°37' W 005°54'0 0.0
2016-Feb-08 14:28N 54°37' W 005°54'5 2.8
2016-Feb-08 12:32N 54°41' W 005°48'4 0.4
2016-Feb-08 02:17N 54°41' W 005°41'0 0.3
2016-Feb-08 01:30N 54°41' W 005°41'8 8.3
2016-Feb-08 00:33N 54°41' W 005°27'1212.5
2016-Feb-07 23:34N 54°29' W 005°22'1110.9
2016-Feb-07 22:33N 54°18' W 005°21'1010.3
2016-Feb-07 21:33N 54°07' W 005°23'249 5.1
2016-Feb-05 21:08N 50°30' W 002°05'13 8.3
2016-Feb-05 19:33N 50°36' W 001°46'9 8.6
2016-Feb-05 18:33N 50°41' W 001°35'9 8.7
2016-Feb-05 17:33N 50°45' W 001°24'7 6.6
2016-Feb-05 16:33N 50°51' W 001°21'4 0.2
2016-Feb-04 19:29N 50°54' W 001°26'0 0.0
2016-Feb-03 03:32N 50°54' W 001°26'0 0.0
2016-Feb-03 02:08N 50°54' W 001°26'0 0.0
2016-Feb-02 22:32N 50°54' W 001°26'1 1.0
2016-Feb-02 21:32N 50°54' W 001°25'8 8.2
2016-Feb-02 20:33N 50°46' W 001°20'7 6.7
2016-Feb-02 19:33N 50°43' W 001°29'7 6.6
2016-Feb-02 18:33N 50°39' W 001°38'1211.3
2016-Feb-02 17:32N 50°33' W 001°53'19510.8
2016-Feb-01 23:33N 48°21' W 005°34'10 9.8
2016-Feb-01 22:33N 48°13' W 005°26'10 9.7
2016-Feb-01 21:33N 48°05' W 005°19'9 8.8
2016-Feb-01 20:33N 47°58' W 005°09'48 9.1
2016-Feb-01 15:18N 47°38' W 004°05'810.5
2016-Feb-01 14:33N 47°38' W 003°53'1110.7
2016-Feb-01 13:33N 47°39' W 003°38'9 9.5
2016-Feb-01 12:33N 47°41' W 003°24'3 3.2
2016-Feb-01 11:31N 47°44' W 003°21'0 0.0
2016-Feb-01 10:31N 47°44' W 003°21'0 0.0
2016-Feb-01 09:31N 47°44' W 003°21'0 0.0
2016-Feb-01 08:31N 47°44' W 003°21'0 0.0
2016-Feb-01 07:31N 47°44' W 003°21'0 0.0
2016-Feb-01 06:31N 47°44' W 003°21'0 0.0
2016-Feb-01 05:31N 47°44' W 003°21'0 0.0
2016-Feb-01 04:31N 47°44' W 003°21'0 0.0
2016-Feb-01 03:31N 47°44' W 003°21'0 0.0
2016-Feb-01 02:31N 47°44' W 003°21'0 0.0
2016-Feb-01 01:31N 47°44' W 003°21'0 0.0
2016-Feb-01 00:31N 47°44' W 003°21'  

Dump ship's entire track history